createdAt,value
2018-12-19T00:02:25.025Z,38.77
2018-12-19T00:04:53.237Z,36.87
2018-12-19T00:07:21.460Z,38.63
2018-12-19T00:09:49.670Z,37.07
2018-12-19T00:12:17.874Z,37.53
2018-12-19T00:14:46.083Z,35.77
2018-12-19T00:17:14.285Z,37.23
2018-12-19T00:19:42.505Z,40.50
2018-12-19T00:22:10.732Z,36.17
2018-12-19T00:24:39.002Z,33.60
2018-12-19T00:27:07.236Z,34.70
2018-12-19T00:29:35.525Z,34.13
2018-12-19T00:32:03.827Z,37.37
2018-12-19T00:34:32.037Z,35.57
2018-12-19T00:37:00.225Z,33.30
2018-12-19T00:39:28.449Z,32.80
2018-12-19T00:41:56.710Z,33.80
2018-12-19T00:44:24.908Z,33.83
2018-12-19T00:46:53.109Z,31.80
2018-12-19T00:49:21.427Z,31.90
2018-12-19T00:54:24.113Z,32.20
2018-12-19T00:56:52.336Z,33.80
2018-12-19T00:59:20.668Z,30.57
2018-12-19T01:01:48.894Z,34.00
2018-12-19T01:04:17.116Z,32.20
2018-12-19T01:06:45.357Z,29.13
2018-12-19T01:09:15.994Z,29.73
2018-12-19T01:11:44.553Z,32.17
2018-12-19T01:14:12.764Z,31.57
2018-12-19T01:16:40.996Z,31.47
2018-12-19T01:19:09.217Z,35.07
2018-12-19T01:21:37.626Z,32.20
2018-12-19T01:24:05.918Z,35.67
2018-12-19T01:26:34.125Z,34.30
2018-12-19T01:29:02.328Z,35.17
2018-12-19T01:31:30.539Z,32.77
2018-12-19T01:33:58.734Z,35.97
2018-12-19T01:36:26.989Z,34.63
2018-12-19T01:38:55.185Z,36.97
2018-12-19T01:41:23.487Z,36.43
2018-12-19T01:43:51.713Z,38.73
2018-12-19T01:46:19.933Z,39.90
2018-12-19T01:48:48.200Z,34.17
2018-12-19T01:51:16.542Z,35.10
2018-12-19T01:53:44.813Z,37.50
2018-12-19T01:56:13.043Z,34.13
2018-12-19T01:58:41.243Z,35.63
2018-12-19T02:01:09.461Z,32.67
2018-12-19T02:03:37.659Z,37.37
2018-12-19T02:06:05.861Z,36.27
2018-12-19T02:08:34.077Z,34.80
2018-12-19T02:11:02.413Z,36.93
2018-12-19T02:13:30.616Z,37.50
2018-12-19T02:15:58.858Z,35.63
2018-12-19T02:18:27.097Z,38.40
2018-12-19T02:20:55.385Z,38.67
2018-12-19T02:23:23.590Z,34.17
2018-12-19T02:25:51.812Z,35.03
2018-12-19T02:28:20.089Z,36.93
2018-12-19T02:30:48.317Z,35.70
2018-12-19T02:33:16.533Z,37.07
2018-12-19T02:35:45.135Z,36.43
2018-12-19T02:38:13.428Z,37.17
2018-12-19T02:40:41.628Z,37.03
2018-12-19T02:43:09.842Z,33.30
2018-12-19T02:45:38.048Z,33.63
2018-12-19T02:48:06.357Z,36.00
2018-12-19T02:50:34.571Z,32.57
2018-12-19T02:53:02.794Z,34.57
2018-12-19T02:55:31.004Z,33.70
2018-12-19T02:57:59.228Z,36.83
2018-12-19T03:00:27.500Z,34.53
2018-12-19T03:02:55.727Z,29.80
2018-12-19T03:05:23.933Z,31.33
2018-12-19T03:07:52.204Z,29.80
2018-12-19T03:10:20.510Z,29.47
2018-12-19T03:12:48.827Z,34.53
2018-12-19T03:15:17.024Z,38.03
2018-12-19T03:17:45.278Z,37.90
2018-12-19T03:20:13.635Z,37.57
2018-12-19T03:22:41.912Z,40.83
2018-12-19T03:25:10.189Z,35.70
2018-12-19T03:27:38.483Z,37.73
2018-12-19T03:30:06.975Z,37.20
2018-12-19T03:32:35.269Z,36.33
2018-12-19T03:35:03.617Z,35.37
2018-12-19T03:37:31.953Z,36.33
2018-12-19T03:40:00.168Z,39.17
2018-12-19T03:42:28.382Z,31.33
2018-12-19T03:44:56.649Z,33.90
2018-12-19T03:47:25.009Z,38.80
2018-12-19T03:49:53.494Z,34.13
2018-12-19T03:52:21.691Z,33.97
2018-12-19T03:54:49.906Z,35.10
2018-12-19T03:57:18.177Z,38.30
2018-12-19T03:59:46.401Z,39.77
2018-12-19T04:02:14.599Z,35.93
2018-12-19T04:04:42.880Z,34.30
2018-12-19T04:07:11.171Z,38.30
2018-12-19T04:09:39.376Z,35.33
2018-12-19T04:12:07.573Z,34.37
2018-12-19T04:14:35.847Z,32.27
2018-12-19T04:17:04.139Z,32.17
2018-12-19T04:19:32.344Z,38.97
2018-12-19T04:22:00.546Z,35.10
2018-12-19T04:24:28.838Z,36.57
2018-12-19T04:26:57.966Z,35.37
2018-12-19T04:29:26.266Z,35.27
2018-12-19T04:31:54.478Z,39.43
2018-12-19T04:34:22.692Z,34.00
2018-12-19T04:36:50.876Z,43.33
2018-12-19T04:39:19.106Z,35.93
2018-12-19T04:41:47.298Z,37.73
2018-12-19T04:44:15.517Z,35.27
2018-12-19T04:46:43.745Z,38.83
2018-12-19T04:49:11.948Z,36.70
2018-12-19T04:51:40.223Z,35.67
2018-12-19T04:54:08.532Z,41.80
2018-12-19T04:56:36.816Z,35.73
2018-12-19T04:59:05.086Z,41.47
2018-12-19T05:01:33.403Z,40.10
2018-12-19T05:04:01.604Z,42.13
2018-12-19T05:06:29.826Z,42.53
2018-12-19T05:08:58.060Z,39.03
2018-12-19T05:11:26.261Z,44.17
2018-12-19T05:13:54.486Z,36.07
2018-12-19T05:16:22.694Z,44.27
2018-12-19T05:18:50.891Z,43.60
2018-12-19T05:21:19.109Z,37.93
2018-12-19T05:23:47.303Z,40.83
2018-12-19T05:26:16.418Z,38.33
2018-12-19T05:28:44.596Z,39.27
2018-12-19T05:31:12.910Z,39.20
2018-12-19T05:33:41.195Z,42.90
2018-12-19T05:36:09.513Z,39.80
2018-12-19T05:38:37.688Z,38.97
2018-12-19T05:41:05.893Z,38.57
2018-12-19T05:43:34.102Z,37.10
2018-12-19T05:46:02.301Z,38.20
2018-12-19T05:48:30.500Z,36.33
2018-12-19T05:50:58.732Z,34.93
2018-12-19T05:53:26.945Z,34.50
2018-12-19T05:55:55.206Z,36.70
2018-12-19T05:58:23.468Z,37.03
2018-12-19T06:00:51.682Z,36.20
2018-12-19T06:03:19.886Z,35.13
2018-12-19T06:05:48.136Z,34.70
2018-12-19T06:08:16.352Z,35.77
2018-12-19T06:10:44.578Z,33.23
2018-12-19T06:13:12.858Z,33.07
2018-12-19T06:15:41.090Z,31.83
2018-12-19T06:18:09.282Z,33.33
2018-12-19T06:20:37.541Z,33.73
2018-12-19T06:23:05.729Z,35.30
2018-12-19T06:25:33.939Z,36.33
2018-12-19T06:28:02.150Z,34.73
2018-12-19T06:30:30.624Z,35.00
2018-12-19T06:32:58.913Z,31.77
2018-12-19T06:35:27.115Z,30.63
2018-12-19T06:37:55.447Z,31.20
2018-12-19T06:40:23.704Z,32.30
2018-12-19T06:42:52.014Z,29.73
2018-12-19T06:45:20.232Z,33.13
2018-12-19T06:47:48.430Z,31.47
2018-12-19T06:50:16.654Z,32.77
2018-12-19T06:52:44.890Z,31.60
2018-12-19T06:55:13.142Z,32.43
2018-12-19T06:57:41.364Z,30.53
2018-12-19T07:00:10.532Z,33.00
2018-12-19T07:02:38.804Z,30.47
2018-12-19T07:05:07.157Z,28.77
2018-12-19T07:07:35.376Z,31.17
2018-12-19T07:10:03.890Z,29.60
2018-12-19T07:12:32.118Z,28.83
2018-12-19T07:15:00.334Z,31.27
2018-12-19T07:17:28.582Z,27.83
2018-12-19T07:19:56.768Z,27.27
2018-12-19T07:22:24.970Z,29.67
2018-12-19T07:24:53.170Z,30.00
2018-12-19T07:27:21.486Z,28.60
2018-12-19T07:29:49.675Z,26.07
2018-12-19T07:32:17.912Z,25.57
2018-12-19T07:34:46.176Z,28.83
2018-12-19T07:37:14.436Z,27.50
2018-12-19T07:39:42.653Z,30.80
2018-12-19T07:42:11.375Z,26.77
2018-12-19T07:44:39.768Z,26.53
2018-12-19T07:47:08.018Z,28.77
2018-12-19T07:49:36.242Z,28.03
2018-12-19T07:52:04.522Z,29.50
2018-12-19T07:54:32.774Z,30.13
2018-12-19T07:57:00.989Z,29.13
2018-12-19T07:59:29.193Z,32.03
2018-12-19T08:01:57.399Z,30.13
2018-12-19T08:04:25.906Z,28.90
2018-12-19T08:06:54.110Z,28.10
2018-12-19T08:09:22.370Z,28.70
2018-12-19T08:11:50.657Z,28.80
2018-12-19T08:14:18.853Z,29.97
2018-12-19T08:16:47.099Z,30.20
2018-12-19T08:19:15.304Z,27.00
2018-12-19T08:21:43.520Z,28.13
2018-12-19T08:24:11.726Z,27.97
2018-12-19T08:26:39.995Z,29.33
2018-12-19T08:29:08.202Z,25.83
2018-12-19T08:31:36.446Z,22.90
2018-12-19T08:34:04.883Z,23.27
2018-12-19T08:36:33.177Z,25.00
2018-12-19T08:39:01.406Z,24.23
2018-12-19T08:41:29.639Z,23.60
2018-12-19T08:43:57.861Z,23.03
2018-12-19T08:46:26.078Z,24.33
2018-12-19T08:48:54.306Z,23.37
2018-12-19T08:51:22.518Z,22.90
2018-12-19T08:53:50.806Z,19.60
2018-12-19T08:56:19.051Z,22.57
2018-12-19T08:58:47.283Z,21.63
2018-12-19T09:01:15.553Z,21.40
2018-12-19T09:03:43.779Z,21.87
2018-12-19T09:06:12.079Z,24.03
2018-12-19T09:08:40.374Z,23.63
2018-12-19T09:11:08.590Z,20.47
2018-12-19T09:13:36.789Z,20.60
2018-12-19T09:16:05.095Z,21.37
2018-12-19T09:18:33.368Z,21.70
2018-12-19T09:21:01.634Z,24.50
2018-12-19T09:23:29.878Z,25.27
2018-12-19T09:25:58.106Z,23.93
2018-12-19T09:28:26.440Z,22.03
2018-12-19T09:30:54.808Z,23.30
2018-12-19T09:33:27.420Z,23.93
2018-12-19T09:35:53.549Z,18.87
2018-12-19T09:38:22.256Z,21.77
2018-12-19T09:40:50.474Z,23.43
2018-12-19T09:43:18.681Z,20.33
2018-12-19T09:45:46.876Z,21.57
2018-12-19T09:48:15.168Z,21.40
2018-12-19T09:50:43.396Z,19.93
2018-12-19T09:53:11.732Z,19.50
2018-12-19T09:55:40.070Z,22.03
2018-12-19T09:58:08.290Z,21.23
2018-12-19T10:00:36.497Z,19.87
2018-12-19T10:03:04.916Z,22.13
2018-12-19T10:05:33.336Z,23.10
2018-12-19T10:08:01.575Z,23.20
2018-12-19T10:10:29.803Z,22.27
2018-12-19T10:12:58.054Z,24.03
2018-12-19T10:15:26.282Z,24.03
2018-12-19T10:17:54.513Z,24.13
2018-12-19T10:20:22.782Z,20.17
2018-12-19T10:22:54.753Z,20.67
2018-12-19T10:25:24.270Z,21.10
2018-12-19T10:27:52.474Z,21.60
2018-12-19T10:30:20.757Z,21.10
2018-12-19T10:32:56.111Z,24.03
2018-12-19T10:35:25.416Z,23.73
2018-12-19T10:37:53.614Z,20.57
2018-12-19T10:40:21.935Z,22.63
2018-12-19T10:42:50.170Z,19.97
2018-12-19T10:45:18.378Z,20.80
2018-12-19T10:47:46.602Z,21.90
2018-12-19T10:50:14.822Z,21.80
2018-12-19T10:52:43.035Z,21.27
2018-12-19T10:55:11.236Z,19.70
2018-12-19T10:57:39.457Z,22.27
2018-12-19T11:00:15.619Z,21.27
2018-12-19T11:02:43.832Z,19.60
2018-12-19T11:05:12.036Z,21.67
2018-12-19T11:07:40.272Z,22.10
2018-12-19T11:10:08.654Z,22.33
2018-12-19T11:12:36.873Z,21.27
2018-12-19T11:15:08.164Z,21.77
2018-12-19T11:17:36.582Z,22.33
2018-12-19T11:20:05.120Z,20.47
2018-12-19T11:22:33.458Z,19.87
2018-12-19T11:25:01.672Z,21.17
2018-12-19T11:27:29.924Z,20.40
2018-12-19T11:29:58.139Z,21.47
2018-12-19T11:32:26.462Z,20.03
2018-12-19T11:34:54.709Z,21.20
2018-12-19T11:37:22.990Z,20.83
2018-12-19T11:39:51.182Z,19.60
2018-12-19T11:42:19.484Z,19.93
2018-12-19T11:44:47.677Z,19.30
2018-12-19T11:47:15.923Z,20.17
2018-12-19T11:49:44.131Z,20.20
2018-12-19T11:52:12.362Z,19.23
2018-12-19T11:54:40.562Z,20.53
2018-12-19T11:57:08.959Z,20.37
2018-12-19T11:59:37.898Z,20.17
2018-12-19T12:02:06.142Z,23.83
2018-12-19T12:04:34.365Z,22.77
2018-12-19T12:07:02.806Z,20.43
2018-12-19T12:09:31.066Z,20.10
2018-12-19T12:11:59.580Z,20.67
2018-12-19T12:14:27.845Z,21.10
2018-12-19T12:16:56.041Z,22.63
2018-12-19T12:19:24.386Z,20.37
2018-12-19T12:21:52.689Z,21.00
2018-12-19T12:24:20.951Z,19.87
2018-12-19T12:26:49.847Z,23.37
2018-12-19T12:29:18.085Z,21.27
2018-12-19T12:31:46.307Z,20.37
2018-12-19T12:34:14.604Z,21.43
2018-12-19T12:36:42.821Z,21.80
2018-12-19T12:39:11.051Z,22.10
2018-12-19T12:41:39.248Z,23.37
2018-12-19T12:44:07.462Z,20.10
2018-12-19T12:46:35.706Z,23.37
2018-12-19T12:49:04.051Z,20.63
2018-12-19T12:51:32.268Z,21.73
2018-12-19T12:54:00.478Z,19.53
2018-12-19T12:56:28.776Z,19.30
2018-12-19T12:58:57.290Z,22.47
2018-12-19T13:01:25.496Z,21.07
2018-12-19T13:03:53.757Z,22.53
2018-12-19T13:06:21.949Z,21.50
2018-12-19T13:08:50.248Z,20.53
2018-12-19T13:11:18.525Z,20.37
2018-12-19T13:13:46.769Z,19.03
2018-12-19T13:16:15.024Z,21.67
2018-12-19T13:18:43.248Z,21.67
2018-12-19T13:21:11.487Z,21.53
2018-12-19T13:23:39.732Z,22.03
2018-12-19T13:26:08.203Z,22.67
2018-12-19T13:28:36.457Z,23.07
2018-12-19T13:31:04.664Z,21.40
2018-12-19T13:33:32.906Z,23.70
2018-12-19T13:36:01.119Z,20.30
2018-12-19T13:38:29.333Z,23.33
2018-12-19T13:40:57.621Z,21.63
2018-12-19T13:43:25.976Z,21.83
2018-12-19T13:45:54.301Z,21.60
2018-12-19T13:48:22.530Z,21.80
2018-12-19T13:50:50.770Z,23.67
2018-12-19T13:53:18.985Z,24.40
2018-12-19T13:55:47.582Z,21.93
2018-12-19T13:58:15.810Z,24.03
2018-12-19T14:00:44.177Z,20.37
2018-12-19T14:03:12.371Z,21.33
2018-12-19T14:05:40.602Z,21.73
2018-12-19T14:08:08.846Z,22.87
2018-12-19T14:10:37.103Z,21.93
2018-12-19T14:13:05.402Z,24.57
2018-12-19T14:15:33.638Z,24.07
2018-12-19T14:18:01.872Z,22.10
2018-12-19T14:20:30.089Z,23.13
2018-12-19T14:22:58.285Z,24.63
2018-12-19T14:25:26.506Z,29.80
2018-12-19T14:27:54.714Z,29.97
2018-12-19T14:30:22.938Z,32.10
2018-12-19T14:32:51.143Z,27.50
2018-12-19T14:35:19.362Z,24.07
2018-12-19T14:37:47.653Z,22.67
2018-12-19T14:40:15.875Z,23.60
2018-12-19T14:42:44.113Z,23.63
2018-12-19T14:45:12.589Z,25.53
2018-12-19T14:47:40.787Z,23.97
2018-12-19T14:50:09.054Z,23.93
2018-12-19T14:52:37.250Z,22.53
2018-12-19T14:55:05.593Z,24.47
2018-12-19T14:57:33.789Z,26.37
2018-12-19T15:00:02.006Z,22.97
2018-12-19T15:02:30.189Z,22.77
2018-12-19T15:04:58.417Z,22.50
2018-12-19T15:07:26.630Z,24.20
2018-12-19T15:09:54.879Z,21.47
2018-12-19T15:12:25.865Z,23.43
2018-12-19T15:14:53.371Z,24.97
2018-12-19T15:17:21.593Z,23.37
2018-12-19T15:19:49.875Z,26.63
2018-12-19T15:22:18.121Z,21.03
2018-12-19T15:24:46.460Z,26.37
2018-12-19T15:27:14.676Z,22.97
2018-12-19T15:29:42.873Z,21.20
2018-12-19T15:32:11.175Z,24.40
2018-12-19T15:34:39.374Z,21.10
2018-12-19T15:37:07.587Z,23.90
2018-12-19T15:39:35.798Z,23.10
2018-12-19T15:42:04.136Z,24.17
2018-12-19T15:44:32.332Z,23.30
2018-12-19T15:47:00.562Z,25.23
2018-12-19T15:49:28.877Z,23.90
2018-12-19T15:51:57.181Z,25.30
2018-12-19T15:54:25.382Z,26.23
2018-12-19T15:56:53.655Z,27.83
2018-12-19T15:59:21.910Z,25.03
2018-12-19T16:01:50.166Z,21.40
2018-12-19T16:04:18.377Z,23.60
2018-12-19T16:06:46.632Z,24.43
2018-12-19T16:09:14.849Z,24.50
2018-12-19T16:11:43.111Z,24.43
2018-12-19T16:14:11.362Z,24.00
2018-12-19T16:16:39.782Z,27.30
2018-12-19T16:19:07.998Z,26.10
2018-12-19T16:21:36.380Z,25.97
2018-12-19T16:24:04.732Z,28.90
2018-12-19T16:26:33.096Z,28.53
2018-12-19T16:29:01.275Z,26.77
2018-12-19T16:31:29.482Z,24.97
2018-12-19T16:33:58.398Z,26.17
2018-12-19T16:36:28.216Z,26.27
2018-12-19T16:38:56.785Z,27.03
2018-12-19T16:41:25.078Z,27.23
2018-12-19T16:43:53.283Z,36.50
2018-12-19T16:46:21.498Z,29.47
2018-12-19T16:48:49.747Z,27.63
2018-12-19T16:51:18.021Z,26.80
2018-12-19T16:53:46.402Z,28.70
2018-12-19T16:56:14.634Z,28.07
2018-12-19T16:58:42.854Z,27.53
2018-12-19T17:01:11.134Z,27.73
2018-12-19T17:03:39.686Z,28.37
2018-12-19T17:06:07.906Z,29.13
2018-12-19T17:08:36.169Z,28.73
2018-12-19T17:11:04.557Z,26.43
2018-12-19T17:13:32.768Z,28.43
2018-12-19T17:16:01.097Z,29.63
2018-12-19T17:18:29.474Z,35.57
2018-12-19T17:20:57.762Z,27.27
2018-12-19T17:23:27.061Z,27.27
2018-12-19T17:25:55.285Z,47.53
2018-12-19T17:28:23.517Z,45.67
2018-12-19T17:30:51.754Z,38.90
2018-12-19T17:33:20.194Z,30.90
2018-12-19T17:35:48.430Z,28.27
2018-12-19T17:38:16.764Z,30.03
2018-12-19T17:40:45.090Z,33.70
2018-12-19T17:43:13.336Z,29.73
2018-12-19T17:45:41.555Z,30.77
2018-12-19T17:48:09.797Z,33.63
2018-12-19T17:50:38.073Z,27.53
2018-12-19T17:53:07.429Z,30.33
2018-12-19T17:55:35.698Z,29.47
2018-12-19T17:58:04.002Z,26.57
2018-12-19T18:00:32.293Z,27.80
2018-12-19T18:03:00.507Z,27.73
2018-12-19T18:05:28.721Z,26.20
2018-12-19T18:07:56.990Z,27.50
2018-12-19T18:10:25.219Z,27.83
2018-12-19T18:12:53.514Z,26.07
2018-12-19T18:15:21.743Z,27.47
2018-12-19T18:17:49.968Z,26.23
2018-12-19T18:20:18.306Z,29.80
2018-12-19T18:22:46.510Z,29.50
2018-12-19T18:25:14.870Z,31.00
2018-12-19T18:27:43.077Z,26.53
2018-12-19T18:30:11.483Z,28.90
2018-12-19T18:32:39.777Z,29.83
2018-12-19T18:35:08.255Z,27.33
2018-12-19T18:37:36.458Z,31.50
2018-12-19T18:40:05.018Z,28.13
2018-12-19T18:42:33.387Z,28.30
2018-12-19T18:45:01.673Z,32.27
2018-12-19T18:47:29.903Z,28.30
2018-12-19T18:49:58.130Z,28.67
2018-12-19T18:52:26.418Z,28.67
2018-12-19T18:54:54.630Z,27.10
2018-12-19T18:57:22.863Z,27.57
2018-12-19T18:59:51.150Z,29.43
2018-12-19T19:02:19.571Z,31.13
2018-12-19T19:04:47.860Z,32.23
2018-12-19T19:07:16.123Z,32.57
2018-12-19T19:09:44.454Z,32.63
2018-12-19T19:12:12.746Z,27.57
2018-12-19T19:14:41.055Z,38.63
2018-12-19T19:17:09.438Z,28.77
2018-12-19T19:19:37.767Z,30.03
2018-12-19T19:22:05.991Z,30.93
2018-12-19T19:24:34.192Z,30.60
2018-12-19T19:27:02.503Z,31.23
2018-12-19T19:29:30.704Z,31.23
2018-12-19T19:31:58.985Z,30.87
2018-12-19T19:34:27.202Z,31.10
2018-12-19T19:36:55.424Z,29.47
2018-12-19T19:39:23.674Z,32.27
2018-12-19T19:41:52.069Z,31.93
2018-12-19T19:44:20.348Z,34.83
2018-12-19T19:46:48.569Z,33.10
2018-12-19T19:49:16.766Z,30.30
2018-12-19T19:51:45.001Z,29.90
2018-12-19T19:54:13.225Z,31.43
2018-12-19T19:56:41.438Z,29.03
2018-12-19T19:59:09.734Z,32.17
2018-12-19T20:01:37.946Z,29.13
2018-12-19T20:04:06.213Z,32.27
2018-12-19T20:06:34.537Z,32.50
2018-12-19T20:09:04.710Z,32.33
2018-12-19T20:11:33.194Z,30.60
2018-12-19T20:14:01.458Z,30.97
2018-12-19T20:16:29.661Z,31.57
2018-12-19T20:18:57.851Z,30.47
2018-12-19T20:21:26.072Z,32.13
2018-12-19T20:23:54.571Z,31.27
2018-12-19T20:26:22.974Z,31.97
2018-12-19T20:28:51.173Z,33.87
2018-12-19T20:31:19.496Z,30.53
2018-12-19T20:33:47.741Z,32.50
2018-12-19T20:36:16.338Z,30.90
2018-12-19T20:38:44.823Z,29.80
2018-12-19T20:41:13.226Z,30.97
2018-12-19T20:43:41.538Z,31.93
2018-12-19T20:46:09.737Z,32.53
2018-12-19T20:48:38.006Z,29.43
2018-12-19T20:51:06.295Z,29.23
2018-12-19T20:53:34.544Z,31.00
2018-12-19T20:56:03.832Z,29.33
2018-12-19T20:58:32.306Z,30.70
2018-12-19T21:01:00.599Z,29.27
2018-12-19T21:03:28.914Z,29.20
2018-12-19T21:05:57.141Z,27.60
2018-12-19T21:08:26.963Z,31.90
2018-12-19T21:10:55.169Z,31.57
2018-12-19T21:13:23.416Z,31.47
2018-12-19T21:15:51.683Z,31.07
2018-12-19T21:18:25.474Z,30.23
2018-12-19T21:20:53.842Z,33.17
2018-12-19T21:23:22.075Z,31.23
2018-12-19T21:25:50.387Z,32.63
2018-12-19T21:28:18.643Z,32.10
2018-12-19T21:30:46.853Z,32.47
2018-12-19T21:33:15.105Z,30.50
2018-12-19T21:35:43.349Z,29.80
2018-12-19T21:38:11.714Z,31.30
2018-12-19T21:40:39.918Z,31.37
2018-12-19T21:43:08.418Z,33.27
2018-12-19T21:45:36.648Z,31.50
2018-12-19T21:48:04.841Z,33.87
2018-12-19T21:50:33.092Z,32.97
2018-12-19T21:53:01.301Z,33.50
2018-12-19T21:55:29.558Z,29.67
2018-12-19T21:57:57.918Z,32.83
2018-12-19T22:00:30.578Z,33.60
2018-12-19T22:03:03.150Z,34.20
2018-12-19T22:05:31.525Z,31.70
2018-12-19T22:08:00.077Z,32.97
2018-12-19T22:10:28.410Z,33.77
2018-12-19T22:12:56.830Z,34.10
2018-12-19T22:15:25.254Z,34.00
2018-12-19T22:17:58.920Z,35.57
2018-12-19T22:20:27.248Z,35.13
2018-12-19T22:22:56.079Z,36.80
2018-12-19T22:25:24.328Z,33.73
2018-12-19T22:27:52.645Z,35.07
2018-12-19T22:30:20.989Z,35.60
2018-12-19T22:32:49.251Z,35.63
2018-12-19T22:35:17.480Z,37.43
2018-12-19T22:37:45.714Z,34.53
2018-12-19T22:40:14.056Z,35.90
2018-12-19T22:42:42.273Z,36.77
2018-12-19T22:45:10.653Z,35.93
2018-12-19T22:47:38.931Z,36.23
2018-12-19T22:50:07.450Z,37.30
2018-12-19T22:55:09.251Z,35.70
2018-12-19T22:57:37.504Z,34.93
2018-12-19T23:00:11.006Z,38.20
2018-12-19T23:02:44.927Z,35.93
2018-12-19T23:05:15.261Z,37.93
2018-12-19T23:07:43.850Z,38.00
2018-12-19T23:10:12.085Z,37.67
2018-12-19T23:12:40.407Z,37.80
2018-12-19T23:15:08.892Z,37.93
2018-12-19T23:17:40.025Z,42.53
2018-12-19T23:20:09.997Z,35.37
2018-12-19T23:22:38.319Z,39.70
2018-12-19T23:25:07.690Z,38.87
2018-12-19T23:27:36.081Z,41.00
2018-12-19T23:30:06.103Z,38.67
2018-12-19T23:32:34.484Z,42.30
2018-12-19T23:35:03.152Z,37.33
2018-12-19T23:37:31.596Z,41.53
2018-12-19T23:40:00.970Z,41.20
2018-12-19T23:42:29.273Z,43.23
2018-12-19T23:44:58.527Z,41.77
2018-12-19T23:47:26.845Z,43.97
2018-12-19T23:49:55.117Z,43.27
2018-12-19T23:52:23.465Z,42.50
2018-12-19T23:54:51.905Z,43.87
2018-12-19T23:57:20.274Z,43.13
2018-12-19T23:59:48.635Z,47.07
